Time;durP1;ratioP1;P1;durP2;ratioP2;P2;SDS_P1;SDS_P2;PMS_P1;PMS_P2;Temp;Humidity;BMP_temperature;BMP_pressure;BME280_temperature;BME280_humidity;BME280_pressure;Samples;Min_cycle;Max_cycle;Signal;HPM_P1;HPM_P2
2022/05/28 00:00:49;;;;;;;0.00;0.00;;;;;;;;;;6171117;23;20024;-51
2022/05/28 00:03:15;;;;;;;0.00;0.00;;;;;;;;;;6173575;23;20044;-50
2022/05/28 00:05:40;;;;;;;0.00;0.00;;;;;;;;;;6172519;23;20013;-48
2022/05/28 00:08:05;;;;;;;0.17;0.17;;;;;;;;;;6175010;23;20009;-51
2022/05/28 00:10:33;;;;;;;0.10;0.10;;;;;;;;;;6173284;23;20431;-51
2022/05/28 00:12:59;;;;;;;0.08;0.08;;;;;;;;;;6177346;23;20072;-47
2022/05/28 00:15:24;;;;;;;0.10;0.10;;;;;;;;;;6173471;23;20021;-49
2022/05/28 00:17:49;;;;;;;0.00;0.00;;;;;;;;;;6175275;23;20031;-50
2022/05/28 00:20:14;;;;;;;0.00;0.00;;;;;;;;;;6173841;23;20036;-48
2022/05/28 00:22:41;;;;;;;0.45;0.30;;;;;;;;;;6176444;23;20017;-48
2022/05/28 00:25:07;;;;;;;0.00;0.00;;;;;;;;;;6175507;23;20071;-48
2022/05/28 00:27:32;;;;;;;0.00;0.00;;;;;;;;;;6174668;23;20021;-49
2022/05/28 00:29:57;;;;;;;0.00;0.00;;;;;;;;;;6177162;23;20100;-51
2022/05/28 00:32:23;;;;;;;0.00;0.00;;;;;;;;;;6176284;23;20029;-50
2022/05/28 00:34:48;;;;;;;0.00;0.00;;;;;;;;;;6152289;23;20009;-51
2022/05/28 00:37:14;;;;;;;0.00;0.00;;;;;;;;;;6177370;23;20017;-51
2022/05/28 00:39:39;;;;;;;0.00;0.00;;;;;;;;;;6178012;23;20017;-51
2022/05/28 00:42:04;;;;;;;0.20;0.20;;;;;;;;;;6177179;23;20021;-53
2022/05/28 00:44:30;;;;;;;0.00;0.00;;;;;;;;;;6178399;23;20080;-48
2022/05/28 00:46:56;;;;;;;0.00;0.00;;;;;;;;;;6175903;23;20059;-51
2022/05/28 00:49:23;;;;;;;0.00;0.00;;;;;;;;;;6151501;23;20013;-52
2022/05/28 00:51:50;;;;;;;0.00;0.00;;;;;;;;;;6176034;23;20036;-51
2022/05/28 00:54:15;;;;;;;0.00;0.00;;;;;;;;;;6177931;23;20009;-49
2022/05/28 00:56:41;;;;;;;0.00;0.00;;;;;;;;;;6176580;23;20009;-51
2022/05/28 00:59:07;;;;;;;0.00;0.00;;;;;;;;;;6178941;23;20108;-53
2022/05/28 01:01:34;;;;;;;0.00;0.00;;;;;;;;;;6175610;23;20044;-51
2022/05/28 01:04:04;;;;;;;0.00;0.00;;;;;;;;;;6178795;23;20061;-51
2022/05/28 01:06:33;;;;;;;0.00;0.00;;;;;;;;;;6176684;23;20092;-50
2022/05/28 01:09:01;;;;;;;0.10;0.10;;;;;;;;;;6152511;23;20393;-48
2022/05/28 01:11:39;;;;;;;0.00;0.00;;;;;;;;;;6177843;23;20024;-52
2022/05/28 01:14:10;;;;;;;0.00;0.00;;;;;;;;;;6171862;23;20024;-52
2022/05/28 01:16:36;;;;;;;0.00;0.00;;;;;;;;;;6177240;23;20068;-51
2022/05/28 01:19:05;;;;;;;0.00;0.00;;;;;;;;;;6176782;23;20025;-49
2022/05/28 01:21:42;;;;;;;0.00;0.00;;;;;;;;;;6171501;23;20033;-51
2022/05/28 01:24:14;;;;;;;0.10;0.10;;;;;;;;;;6174950;23;20009;-47
2022/05/28 01:26:52;;;;;;;1.35;0.20;;;;;;;;;;6175511;23;20530;-50
2022/05/28 01:29:18;;;;;;;0.10;0.10;;;;;;;;;;6177243;23;20041;-49
2022/05/28 01:31:44;;;;;;;0.00;0.00;;;;;;;;;;6178036;23;20029;-52
2022/05/28 01:34:10;;;;;;;0.10;0.10;;;;;;;;;;6176568;23;20009;-48
2022/05/28 01:36:36;;;;;;;0.00;0.00;;;;;;;;;;6175419;23;20005;-51
2022/05/28 01:39:01;;;;;;;0.00;0.00;;;;;;;;;;6177160;23;20021;-50
2022/05/28 01:41:29;;;;;;;0.00;0.00;;;;;;;;;;6178565;23;20016;-53
2022/05/28 01:43:56;;;;;;;0.13;0.13;;;;;;;;;;6176964;23;20044;-51
2022/05/28 01:46:22;;;;;;;0.10;0.10;;;;;;;;;;6176328;23;20017;-49
2022/05/28 01:48:49;;;;;;;0.10;0.10;;;;;;;;;;6177886;23;20348;-53
2022/05/28 01:51:15;;;;;;;0.85;0.30;;;;;;;;;;6176480;23;20013;-50
2022/05/28 01:56:26;;;;;;;0.05;0.05;;;;;;;;;;6177692;23;20023;-50
2022/05/28 01:58:51;;;;;;;0.10;0.10;;;;;;;;;;6177392;23;20547;-52
2022/05/28 02:01:16;;;;;;;0.00;0.00;;;;;;;;;;6149187;23;20017;-50
2022/05/28 02:03:43;;;;;;;0.10;0.10;;;;;;;;;;6177535;23;20834;-51
2022/05/28 02:06:08;;;;;;;0.00;0.00;;;;;;;;;;6177083;23;20066;-48
2022/05/28 02:08:37;;;;;;;0.30;0.30;;;;;;;;;;6176410;23;20025;-51
2022/05/28 02:11:10;;;;;;;0.00;0.00;;;;;;;;;;6177790;23;20013;-49
2022/05/28 02:13:48;;;;;;;0.60;0.60;;;;;;;;;;6176526;23;20009;-50
2022/05/28 02:16:17;;;;;;;0.03;0.03;;;;;;;;;;6178407;23;20013;-54
2022/05/28 02:18:42;;;;;;;0.32;0.32;;;;;;;;;;6176111;23;20036;-52
2022/05/28 02:21:15;;;;;;;0.00;0.00;;;;;;;;;;6177482;23;20032;-51
2022/05/28 02:23:44;;;;;;;0.40;0.40;;;;;;;;;;6175799;23;20499;-51
2022/05/28 02:26:12;;;;;;;0.10;0.10;;;;;;;;;;6177907;23;20035;-51
2022/05/28 02:28:38;;;;;;;0.00;0.00;;;;;;;;;;6174576;23;20005;-51
2022/05/28 02:31:14;;;;;;;0.00;0.00;;;;;;;;;;6172367;23;20032;-48
2022/05/28 02:33:40;;;;;;;0.00;0.00;;;;;;;;;;6178822;23;20013;-51
2022/05/28 02:36:05;;;;;;;0.00;0.00;;;;;;;;;;6172929;23;20068;-49
2022/05/28 02:38:31;;;;;;;0.00;0.00;;;;;;;;;;6175558;23;20017;-49
2022/05/28 02:40:56;;;;;;;0.10;0.10;;;;;;;;;;6147822;23;20048;-51
2022/05/28 02:43:22;;;;;;;0.00;0.00;;;;;;;;;;6150789;23;20013;-51
2022/05/28 02:45:47;;;;;;;0.00;0.00;;;;;;;;;;6174323;23;20017;-51
2022/05/28 02:48:13;;;;;;;0.10;0.10;;;;;;;;;;6174270;23;20276;-51
2022/05/28 02:50:38;;;;;;;0.10;0.10;;;;;;;;;;6175963;23;20013;-50
2022/05/28 02:53:03;;;;;;;0.10;0.10;;;;;;;;;;6174462;23;20443;-53
2022/05/28 02:55:28;;;;;;;0.05;0.05;;;;;;;;;;6174290;23;20009;-52
2022/05/28 02:57:54;;;;;;;0.10;0.10;;;;;;;;;;6175397;23;20021;-50
2022/05/28 03:00:19;;;;;;;0.10;0.10;;;;;;;;;;6176474;23;20028;-48
2022/05/28 03:02:44;;;;;;;0.10;0.10;;;;;;;;;;6169048;23;20072;-50
2022/05/28 03:05:17;;;;;;;0.10;0.10;;;;;;;;;;6173481;23;20040;-50
2022/05/28 03:07:42;;;;;;;0.10;0.10;;;;;;;;;;6174956;23;20017;-49
2022/05/28 03:10:08;;;;;;;0.10;0.10;;;;;;;;;;6175930;23;20020;-49
2022/05/28 03:12:33;;;;;;;0.13;0.13;;;;;;;;;;6176966;23;20013;-50
2022/05/28 03:14:58;;;;;;;0.00;0.00;;;;;;;;;;6174934;23;20009;-49
2022/05/28 03:17:24;;;;;;;0.17;0.17;;;;;;;;;;6175525;23;20020;-50
2022/05/28 03:19:49;;;;;;;0.00;0.00;;;;;;;;;;6171302;23;20234;-51
2022/05/28 03:22:14;;;;;;;0.00;0.00;;;;;;;;;;6175543;23;20247;-52
2022/05/28 03:24:39;;;;;;;0.08;0.08;;;;;;;;;;6173719;23;20032;-49
2022/05/28 03:27:06;;;;;;;1.25;1.20;;;;;;;;;;6177515;23;20107;-49
2022/05/28 03:29:32;;;;;;;0.00;0.00;;;;;;;;;;6172511;23;20016;-50
2022/05/28 03:31:57;;;;;;;0.03;0.03;;;;;;;;;;6176009;23;20345;-50
2022/05/28 03:34:22;;;;;;;0.05;0.05;;;;;;;;;;6144143;23;20098;-53
2022/05/28 03:36:48;;;;;;;0.10;0.10;;;;;;;;;;6174232;23;20040;-52
2022/05/28 03:39:13;;;;;;;0.00;0.00;;;;;;;;;;6177519;23;20021;-52
2022/05/28 03:41:38;;;;;;;0.00;0.00;;;;;;;;;;6170191;23;20745;-50
2022/05/28 03:44:04;;;;;;;0.00;0.00;;;;;;;;;;6177678;23;20019;-51
2022/05/28 03:46:31;;;;;;;0.00;0.00;;;;;;;;;;6173174;23;20024;-55
2022/05/28 03:49:00;;;;;;;0.03;0.03;;;;;;;;;;6171174;23;20013;-53
2022/05/28 03:51:25;;;;;;;0.10;0.10;;;;;;;;;;6178565;23;20023;-51
2022/05/28 03:53:51;;;;;;;0.00;0.00;;;;;;;;;;6173672;23;20520;-52
2022/05/28 03:56:16;;;;;;;0.00;0.00;;;;;;;;;;6174228;23;20017;-51
2022/05/28 03:58:42;;;;;;;0.10;0.10;;;;;;;;;;6179812;23;20018;-51
2022/05/28 04:01:08;;;;;;;0.00;0.00;;;;;;;;;;6176367;23;20120;-53
2022/05/28 04:03:35;;;;;;;0.00;0.00;;;;;;;;;;6174852;23;21498;-50
2022/05/28 04:06:00;;;;;;;0.03;0.03;;;;;;;;;;6148087;23;20037;-51
2022/05/28 04:08:26;;;;;;;0.05;0.05;;;;;;;;;;6151510;23;20048;-49
2022/05/28 04:10:51;;;;;;;0.10;0.10;;;;;;;;;;6174635;23;20361;-51
2022/05/28 04:13:16;;;;;;;0.03;0.03;;;;;;;;;;6179714;23;20056;-52
2022/05/28 04:15:41;;;;;;;0.10;0.10;;;;;;;;;;6172895;23;20079;-51
2022/05/28 04:18:07;;;;;;;0.10;0.10;;;;;;;;;;6178060;23;20023;-50
2022/05/28 04:20:33;;;;;;;0.03;0.03;;;;;;;;;;6169408;23;20261;-52
2022/05/28 04:22:59;;;;;;;0.28;0.15;;;;;;;;;;6176966;23;20024;-52
2022/05/28 04:25:24;;;;;;;0.00;0.00;;;;;;;;;;6176566;23;20036;-50
2022/05/28 04:27:49;;;;;;;0.40;0.40;;;;;;;;;;6174073;23;20017;-51
2022/05/28 04:30:15;;;;;;;0.10;0.10;;;;;;;;;;6173683;23;20021;-54
2022/05/28 04:32:40;;;;;;;0.00;0.00;;;;;;;;;;6172711;23;20031;-52
2022/05/28 04:35:05;;;;;;;0.10;0.10;;;;;;;;;;6178342;23;20021;-53
2022/05/28 04:37:31;;;;;;;0.00;0.00;;;;;;;;;;6174830;23;20020;-52
2022/05/28 04:39:56;;;;;;;1.55;1.40;;;;;;;;;;6175247;23;20032;-54
2022/05/28 04:42:21;;;;;;;0.10;0.10;;;;;;;;;;6176656;23;20017;-52
2022/05/28 04:44:46;;;;;;;0.10;0.10;;;;;;;;;;6176151;23;20020;-51
2022/05/28 04:47:12;;;;;;;0.00;0.00;;;;;;;;;;6174744;23;20009;-52
2022/05/28 04:49:37;;;;;;;0.10;0.10;;;;;;;;;;6174980;23;20112;-51
2022/05/28 04:52:02;;;;;;;0.00;0.00;;;;;;;;;;6169940;23;20016;-49
2022/05/28 04:54:27;;;;;;;0.03;0.03;;;;;;;;;;6177380;23;20017;-52
2022/05/28 04:56:53;;;;;;;0.30;0.30;;;;;;;;;;6174698;23;20024;-53
2022/05/28 04:59:18;;;;;;;0.45;0.45;;;;;;;;;;6172227;23;20021;-50
2022/05/28 05:01:43;;;;;;;0.00;0.00;;;;;;;;;;6170134;23;20065;-52
2022/05/28 05:04:09;;;;;;;0.73;0.17;;;;;;;;;;6176120;23;20017;-49
2022/05/28 05:06:34;;;;;;;0.13;0.13;;;;;;;;;;6174834;23;20386;-54
2022/05/28 05:08:59;;;;;;;0.10;0.10;;;;;;;;;;6177679;23;20017;-53
2022/05/28 05:11:25;;;;;;;0.00;0.00;;;;;;;;;;6173175;23;20097;-55
2022/05/28 05:13:50;;;;;;;0.10;0.10;;;;;;;;;;6175837;23;20064;-51
2022/05/28 05:16:17;;;;;;;0.00;0.00;;;;;;;;;;6170705;23;20009;-49
2022/05/28 05:18:42;;;;;;;0.00;0.00;;;;;;;;;;6177422;23;20013;-49
2022/05/28 05:21:07;;;;;;;0.10;0.10;;;;;;;;;;6145599;23;20041;-50
2022/05/28 05:23:33;;;;;;;0.00;0.00;;;;;;;;;;6175143;23;20055;-51
2022/05/28 05:25:58;;;;;;;0.00;0.00;;;;;;;;;;6172822;23;20012;-52
2022/05/28 05:28:23;;;;;;;0.10;0.10;;;;;;;;;;6174839;23;20017;-53
2022/05/28 05:30:49;;;;;;;0.00;0.00;;;;;;;;;;6171742;23;20089;-52
2022/05/28 05:33:14;;;;;;;0.00;0.00;;;;;;;;;;6175541;23;20067;-54
2022/05/28 05:35:40;;;;;;;0.00;0.00;;;;;;;;;;6174578;23;20056;-55
2022/05/28 05:38:06;;;;;;;0.10;0.10;;;;;;;;;;6174519;23;20017;-51
2022/05/28 05:40:35;;;;;;;0.00;0.00;;;;;;;;;;6174473;23;20025;-50
2022/05/28 05:43:00;;;;;;;0.10;0.10;;;;;;;;;;6174212;23;20013;-53
2022/05/28 05:45:25;;;;;;;0.05;0.05;;;;;;;;;;6172280;23;20152;-53
2022/05/28 05:47:50;;;;;;;0.00;0.00;;;;;;;;;;6174868;23;20010;-49
2022/05/28 05:50:16;;;;;;;0.20;0.20;;;;;;;;;;6172218;23;20382;-51
2022/05/28 05:52:41;;;;;;;0.38;0.28;;;;;;;;;;6175569;23;20010;-52
2022/05/28 05:55:07;;;;;;;0.03;0.03;;;;;;;;;;6173676;23;20036;-53
2022/05/28 05:57:33;;;;;;;0.25;0.25;;;;;;;;;;6147077;23;20036;-54
2022/05/28 05:59:58;;;;;;;0.00;0.00;;;;;;;;;;6176134;23;20048;-51
2022/05/28 06:02:23;;;;;;;0.10;0.10;;;;;;;;;;6121304;23;20021;-52
2022/05/28 06:04:49;;;;;;;2.38;0.80;;;;;;;;;;6174366;23;20059;-49
2022/05/28 06:07:14;;;;;;;0.20;0.20;;;;;;;;;;6173486;23;20005;-51
2022/05/28 06:09:40;;;;;;;0.00;0.00;;;;;;;;;;6173883;23;20619;-53
2022/05/28 06:12:05;;;;;;;0.00;0.00;;;;;;;;;;6175736;23;20047;-53
2022/05/28 06:14:30;;;;;;;0.10;0.10;;;;;;;;;;6175760;23;20020;-51
2022/05/28 06:16:56;;;;;;;0.00;0.00;;;;;;;;;;6172422;23;20024;-48
2022/05/28 06:19:21;;;;;;;8.77;1.65;;;;;;;;;;6172365;23;20032;-50
2022/05/28 06:21:46;;;;;;;0.00;0.00;;;;;;;;;;6173725;23;20731;-51
2022/05/28 06:24:12;;;;;;;0.00;0.00;;;;;;;;;;6177960;23;20793;-53
2022/05/28 06:26:37;;;;;;;0.00;0.00;;;;;;;;;;6170688;23;20064;-52
2022/05/28 06:29:03;;;;;;;0.00;0.00;;;;;;;;;;6179256;23;20068;-52
2022/05/28 06:31:28;;;;;;;0.00;0.00;;;;;;;;;;6172073;23;20542;-50
2022/05/28 06:33:53;;;;;;;0.22;0.22;;;;;;;;;;6171241;23;20398;-52
2022/05/28 06:36:19;;;;;;;0.03;0.03;;;;;;;;;;6145676;23;20689;-53
2022/05/28 06:38:45;;;;;;;0.73;0.73;;;;;;;;;;6173596;23;20021;-53
2022/05/28 06:41:11;;;;;;;0.05;0.05;;;;;;;;;;6174224;23;20031;-51
2022/05/28 06:43:36;;;;;;;0.00;0.00;;;;;;;;;;6170568;23;20037;-50
2022/05/28 06:46:03;;;;;;;0.00;0.00;;;;;;;;;;6174823;23;20013;-53
2022/05/28 06:48:28;;;;;;;0.20;0.20;;;;;;;;;;6144946;23;20017;-53
2022/05/28 06:51:02;;;;;;;0.10;0.10;;;;;;;;;;6174428;23;20375;-53
2022/05/28 06:53:28;;;;;;;0.00;0.00;;;;;;;;;;6173721;23;20028;-52
2022/05/28 06:55:54;;;;;;;0.00;0.00;;;;;;;;;;6173509;23;20060;-49
2022/05/28 06:58:19;;;;;;;0.00;0.00;;;;;;;;;;6147238;23;20013;-48
2022/05/28 07:00:44;;;;;;;0.00;0.00;;;;;;;;;;6176612;23;20033;-48
2022/05/28 07:03:13;;;;;;;0.00;0.00;;;;;;;;;;6168890;23;20025;-49
2022/05/28 07:05:39;;;;;;;0.10;0.10;;;;;;;;;;6174822;23;20763;-49
2022/05/28 07:08:04;;;;;;;0.10;0.10;;;;;;;;;;6166225;23;20088;-47
2022/05/28 07:10:30;;;;;;;0.00;0.00;;;;;;;;;;6170336;23;20627;-50
2022/05/28 07:12:55;;;;;;;0.05;0.05;;;;;;;;;;6172289;23;20013;-52
2022/05/28 07:15:20;;;;;;;0.30;0.30;;;;;;;;;;6147884;23;20894;-51
2022/05/28 07:17:46;;;;;;;0.00;0.00;;;;;;;;;;6143756;23;20016;-48
2022/05/28 07:20:11;;;;;;;0.10;0.10;;;;;;;;;;6177028;23;20110;-51
2022/05/28 07:22:37;;;;;;;0.00;0.00;;;;;;;;;;6170657;23;20032;-52
2022/05/28 07:25:02;;;;;;;0.00;0.00;;;;;;;;;;6173577;23;20032;-49
2022/05/28 07:27:28;;;;;;;0.00;0.00;;;;;;;;;;6170436;23;20329;-49
2022/05/28 07:29:54;;;;;;;0.00;0.00;;;;;;;;;;6175001;23;20040;-49
2022/05/28 07:32:19;;;;;;;0.00;0.00;;;;;;;;;;6146698;23;20106;-53
2022/05/28 07:34:45;;;;;;;0.25;0.25;;;;;;;;;;6150365;23;20021;-49
2022/05/28 07:37:10;;;;;;;0.00;0.00;;;;;;;;;;6172707;23;20009;-53
2022/05/28 07:39:35;;;;;;;0.00;0.00;;;;;;;;;;6171271;23;20017;-48
2022/05/28 07:42:02;;;;;;;0.00;0.00;;;;;;;;;;6173482;23;20424;-50
2022/05/28 07:44:27;;;;;;;0.32;0.32;;;;;;;;;;6174814;23;20020;-50
2022/05/28 07:46:52;;;;;;;0.20;0.20;;;;;;;;;;6172479;23;20021;-48
2022/05/28 07:49:18;;;;;;;0.00;0.00;;;;;;;;;;6176704;23;20013;-51
2022/05/28 07:51:43;;;;;;;0.00;0.00;;;;;;;;;;6174250;23;20036;-50
2022/05/28 07:54:09;;;;;;;0.00;0.00;;;;;;;;;;6173805;23;20017;-49
2022/05/28 07:56:34;;;;;;;0.00;0.00;;;;;;;;;;6173417;23;20103;-50
2022/05/28 07:58:59;;;;;;;0.00;0.00;;;;;;;;;;6176051;23;20028;-53
2022/05/28 08:01:29;;;;;;;0.00;0.00;;;;;;;;;;6175102;23;20091;-48
2022/05/28 08:03:55;;;;;;;0.05;0.05;;;;;;;;;;6147901;23;20013;-50
2022/05/28 08:06:21;;;;;;;0.00;0.00;;;;;;;;;;6173224;23;20498;-53
2022/05/28 08:08:47;;;;;;;0.10;0.10;;;;;;;;;;6172396;23;20017;-49
2022/05/28 08:11:12;;;;;;;0.00;0.00;;;;;;;;;;6149459;23;20245;-52
2022/05/28 08:13:37;;;;;;;0.00;0.00;;;;;;;;;;6173485;23;20411;-51
2022/05/28 08:16:03;;;;;;;0.00;0.00;;;;;;;;;;6171944;23;20024;-53
2022/05/28 08:18:28;;;;;;;0.00;0.00;;;;;;;;;;6172752;23;20023;-54
2022/05/28 08:23:40;;;;;;;0.20;0.20;;;;;;;;;;6174337;23;20090;-51
2022/05/28 08:26:05;;;;;;;0.00;0.00;;;;;;;;;;6169969;23;20019;-53
2022/05/28 08:28:30;;;;;;;0.00;0.00;;;;;;;;;;6174454;23;20013;-53
2022/05/28 08:30:56;;;;;;;0.00;0.00;;;;;;;;;;6173738;23;20087;-50
2022/05/28 08:33:21;;;;;;;0.00;0.00;;;;;;;;;;6175959;23;20024;-50
2022/05/28 08:35:48;;;;;;;0.15;0.15;;;;;;;;;;6176042;23;20020;-50
2022/05/28 08:38:15;;;;;;;0.90;0.17;;;;;;;;;;6176480;23;20027;-51
2022/05/28 08:40:43;;;;;;;0.30;0.30;;;;;;;;;;6149380;23;20041;-51
2022/05/28 08:43:09;;;;;;;0.00;0.00;;;;;;;;;;6173291;23;20047;-54
2022/05/28 08:45:34;;;;;;;0.00;0.00;;;;;;;;;;6173694;23;20013;-51
2022/05/28 08:48:00;;;;;;;0.00;0.00;;;;;;;;;;6169241;23;20028;-51
2022/05/28 08:50:26;;;;;;;0.00;0.00;;;;;;;;;;6174729;23;20025;-52
2022/05/28 08:52:58;;;;;;;0.03;0.03;;;;;;;;;;6173613;23;20017;-52
2022/05/28 08:55:26;;;;;;;0.00;0.00;;;;;;;;;;6175616;23;20373;-53
2022/05/28 08:57:58;;;;;;;0.00;0.00;;;;;;;;;;6175329;23;20525;-50
2022/05/28 09:00:32;;;;;;;0.00;0.00;;;;;;;;;;6177397;23;20028;-53
2022/05/28 09:03:01;;;;;;;0.00;0.00;;;;;;;;;;6174602;23;20025;-49
2022/05/28 09:05:45;;;;;;;0.10;0.10;;;;;;;;;;6175559;23;20160;-48
2022/05/28 09:08:11;;;;;;;0.00;0.00;;;;;;;;;;6175450;23;20379;-51
2022/05/28 09:10:42;;;;;;;0.00;0.00;;;;;;;;;;6168168;23;20005;-52
2022/05/28 09:13:14;;;;;;;0.00;0.00;;;;;;;;;;6175034;23;20459;-50
2022/05/28 09:15:40;;;;;;;0.00;0.00;;;;;;;;;;6171363;23;20111;-52
2022/05/28 09:18:06;;;;;;;0.20;0.20;;;;;;;;;;6176224;23;20012;-52
2022/05/28 09:20:39;;;;;;;0.00;0.00;;;;;;;;;;6145375;23;20088;-49
2022/05/28 09:23:04;;;;;;;0.00;0.00;;;;;;;;;;6175564;23;20077;-50
2022/05/28 09:25:32;;;;;;;8.90;0.90;;;;;;;;;;6169973;23;20387;-52
2022/05/28 09:28:00;;;;;;;0.00;0.00;;;;;;;;;;6179358;23;20005;-50
2022/05/28 09:30:34;;;;;;;0.00;0.00;;;;;;;;;;6171533;23;20036;-49
2022/05/28 09:33:10;;;;;;;33.58;1.45;;;;;;;;;;6177471;23;20035;-50
2022/05/28 09:35:54;;;;;;;0.00;0.00;;;;;;;;;;6172779;23;20058;-51
2022/05/28 09:38:20;;;;;;;0.13;0.13;;;;;;;;;;6171466;23;20685;-52
2022/05/28 09:40:52;;;;;;;0.08;0.08;;;;;;;;;;6174642;23;20047;-50
2022/05/28 09:43:30;;;;;;;0.00;0.00;;;;;;;;;;6165917;23;20022;-50
2022/05/28 09:46:07;;;;;;;0.00;0.00;;;;;;;;;;6171687;23;20021;-51
2022/05/28 09:48:32;;;;;;;0.15;0.15;;;;;;;;;;6169137;23;20095;-50
2022/05/28 09:50:58;;;;;;;0.00;0.00;;;;;;;;;;6172882;23;20017;-50
2022/05/28 09:56:10;;;;;;;0.00;0.00;;;;;;;;;;6169905;23;20618;-52
2022/05/28 09:58:38;;;;;;;0.08;0.08;;;;;;;;;;6169895;23;20016;-51
2022/05/28 10:01:18;;;;;;;0.00;0.00;;;;;;;;;;6171155;23;20033;-51
2022/05/28 10:06:28;;;;;;;0.00;0.00;;;;;;;;;;6167831;23;20083;-50
2022/05/28 10:08:53;;;;;;;0.00;0.00;;;;;;;;;;6170743;23;20017;-51
2022/05/28 10:11:20;;;;;;;0.00;0.00;;;;;;;;;;6168909;23;20371;-50
2022/05/28 10:13:46;;;;;;;0.00;0.00;;;;;;;;;;6147637;23;20457;-52
2022/05/28 10:16:11;;;;;;;0.00;0.00;;;;;;;;;;6165037;23;20411;-52
2022/05/28 10:18:38;;;;;;;0.00;0.00;;;;;;;;;;6172157;23;20017;-51
2022/05/28 10:21:24;;;;;;;0.00;0.00;;;;;;;;;;6170059;23;20056;-52
2022/05/28 10:23:51;;;;;;;0.00;0.00;;;;;;;;;;6169549;23;20013;-49
2022/05/28 10:26:33;;;;;;;0.00;0.00;;;;;;;;;;6167081;23;20055;-52
2022/05/28 10:29:00;;;;;;;0.05;0.05;;;;;;;;;;6169085;23;20040;-48
2022/05/28 10:31:28;;;;;;;0.00;0.00;;;;;;;;;;6169022;23;20043;-50
2022/05/28 10:33:53;;;;;;;0.00;0.00;;;;;;;;;;6169146;23;20009;-52
2022/05/28 10:36:22;;;;;;;0.00;0.00;;;;;;;;;;6171825;23;20080;-49
2022/05/28 10:38:48;;;;;;;0.00;0.00;;;;;;;;;;6141676;23;20017;-50
2022/05/28 10:41:15;;;;;;;0.00;0.00;;;;;;;;;;6173243;23;20031;-48
2022/05/28 10:43:40;;;;;;;0.00;0.00;;;;;;;;;;6168277;23;20013;-49
2022/05/28 10:46:12;;;;;;;0.10;0.10;;;;;;;;;;6171891;23;20496;-48
2022/05/28 10:48:38;;;;;;;0.00;0.00;;;;;;;;;;6168215;23;20005;-51
2022/05/28 10:51:19;;;;;;;0.00;0.00;;;;;;;;;;6168084;23;20134;-52
2022/05/28 10:53:50;;;;;;;0.00;0.00;;;;;;;;;;6165348;23;20069;-50
2022/05/28 10:56:28;;;;;;;0.13;0.13;;;;;;;;;;6171369;23;20530;-48
2022/05/28 10:59:12;;;;;;;0.00;0.00;;;;;;;;;;6172047;23;20407;-51
2022/05/28 11:01:48;;;;;;;0.10;0.10;;;;;;;;;;6173619;23;20530;-50
2022/05/28 11:04:39;;;;;;;0.00;0.00;;;;;;;;;;6172459;23;20025;-53
2022/05/28 11:07:22;;;;;;;0.10;0.10;;;;;;;;;;6171504;23;20051;-51
2022/05/28 11:10:03;;;;;;;0.00;0.00;;;;;;;;;;6171105;23;20453;-50
2022/05/28 11:12:32;;;;;;;0.00;0.00;;;;;;;;;;6174573;23;20020;-52
2022/05/28 11:15:32;;;;;;;0.00;0.00;;;;;;;;;;6177793;23;20023;-51
2022/05/28 11:18:17;;;;;;;0.00;0.00;;;;;;;;;;5998966;23;20098;-52
2022/05/28 11:20:54;;;;;;;0.00;0.00;;;;;;;;;;6129622;23;20097;-46
2022/05/28 11:23:38;;;;;;;0.10;0.10;;;;;;;;;;6144904;23;20061;-52
2022/05/28 11:26:22;;;;;;;0.00;0.00;;;;;;;;;;6144736;23;20010;-54
2022/05/28 11:28:57;;;;;;;0.00;0.00;;;;;;;;;;6155389;23;20021;-50
2022/05/28 11:31:34;;;;;;;0.00;0.00;;;;;;;;;;6141056;23;20037;-50
2022/05/28 11:34:04;;;;;;;0.00;0.00;;;;;;;;;;6142882;23;20471;-54
2022/05/28 11:36:37;;;;;;;0.00;0.00;;;;;;;;;;6143642;23;20025;-50
2022/05/28 11:39:05;;;;;;;0.00;0.00;;;;;;;;;;6141697;23;20073;-52
2022/05/28 11:41:41;;;;;;;0.00;0.00;;;;;;;;;;6143016;23;20049;-53
2022/05/28 11:44:06;;;;;;;0.00;0.00;;;;;;;;;;6143615;23;20275;-53
2022/05/28 11:46:37;;;;;;;0.00;0.00;;;;;;;;;;6140999;23;20349;-51
2022/05/28 11:52:20;;;;;;;0.00;0.00;;;;;;;;;;6144996;23;20415;-49
2022/05/28 11:54:49;;;;;;;0.00;0.00;;;;;;;;;;6142170;23;20846;-48
2022/05/28 11:57:34;;;;;;;0.00;0.00;;;;;;;;;;6141789;23;20048;-54
2022/05/28 12:00:01;;;;;;;0.00;0.00;;;;;;;;;;6125120;23;20036;-50
2022/05/28 12:02:32;;;;;;;0.00;0.00;;;;;;;;;;6141281;23;20049;-52
2022/05/28 12:04:57;;;;;;;2.28;0.10;;;;;;;;;;6145621;23;20028;-53
2022/05/28 12:07:34;;;;;;;0.05;0.05;;;;;;;;;;6146578;23;20033;-53
2022/05/28 12:10:00;;;;;;;0.10;0.10;;;;;;;;;;6141914;23;20025;-51
2022/05/28 12:12:28;;;;;;;0.00;0.00;;;;;;;;;;6148315;23;20013;-52
2022/05/28 12:15:05;;;;;;;0.00;0.00;;;;;;;;;;6140818;23;20125;-52
2022/05/28 12:17:30;;;;;;;0.00;0.00;;;;;;;;;;6148217;23;20069;-48
2022/05/28 12:19:58;;;;;;;0.10;0.10;;;;;;;;;;6138905;23;20048;-50
2022/05/28 12:22:23;;;;;;;0.00;0.00;;;;;;;;;;6149152;23;20020;-52
2022/05/28 12:24:56;;;;;;;0.00;0.00;;;;;;;;;;6144893;23;20598;-54
2022/05/28 12:27:23;;;;;;;7.75;1.85;;;;;;;;;;6142444;23;20770;-48
2022/05/28 12:30:00;;;;;;;0.20;0.20;;;;;;;;;;6134831;23;20013;-48
2022/05/28 12:32:30;;;;;;;0.00;0.00;;;;;;;;;;6140937;23;20056;-51
2022/05/28 12:34:55;;;;;;;;;;;;;;;;;;6141491;23;20017;-50
2022/05/28 12:37:24;;;;;;;0.00;0.00;;;;;;;;;;6139503;23;19988;-51
2022/05/28 12:40:12;;;;;;;0.00;0.00;;;;;;;;;;6144266;23;20247;-51
2022/05/28 12:42:38;;;;;;;0.00;0.00;;;;;;;;;;6127358;23;20033;-52
2022/05/28 12:45:10;;;;;;;0.00;0.00;;;;;;;;;;6129795;23;20465;-52
2022/05/28 12:47:36;;;;;;;0.00;0.00;;;;;;;;;;6142132;23;20024;-51
2022/05/28 12:50:12;;;;;;;0.03;0.03;;;;;;;;;;6139269;23;20073;-53
2022/05/28 12:52:42;;;;;;;0.00;0.00;;;;;;;;;;6142269;23;20002;-52
2022/05/28 12:55:16;;;;;;;0.00;0.00;;;;;;;;;;6138717;23;20037;-50
2022/05/28 12:57:41;;;;;;;0.00;0.00;;;;;;;;;;6140110;23;20488;-51
2022/05/28 13:00:09;;;;;;;0.00;0.00;;;;;;;;;;6133974;23;20040;-51
2022/05/28 13:02:45;;;;;;;0.00;0.00;;;;;;;;;;6141063;23;20053;-47
2022/05/28 13:05:10;;;;;;;0.00;0.00;;;;;;;;;;6137996;23;20021;-48
2022/05/28 13:07:39;;;;;;;0.00;0.00;;;;;;;;;;6143252;23;20328;-51
2022/05/28 13:10:11;;;;;;;0.00;0.00;;;;;;;;;;6140113;23;20020;-50
2022/05/28 13:12:45;;;;;;;0.25;0.25;;;;;;;;;;6142722;23;20518;-51
2022/05/28 14:08:52;;;;;;;0.00;0.00;;;;;;;;;;6188655;23;20079;-52
2022/05/28 14:11:29;;;;;;;0.00;0.00;;;;;;;;;;6205481;23;20079;-50
2022/05/28 14:13:57;;;;;;;0.00;0.00;;;;;;;;;;6205875;23;20020;-53
2022/05/28 14:16:30;;;;;;;0.30;0.30;;;;;;;;;;6205592;23;20016;-51
2022/05/28 14:18:57;;;;;;;0.00;0.00;;;;;;;;;;6203239;23;20009;-50
2022/05/28 14:21:25;;;;;;;0.00;0.00;;;;;;;;;;6202046;23;20086;-52
2022/05/28 14:23:50;;;;;;;0.00;0.00;;;;;;;;;;6205553;23;20008;-51
2022/05/28 14:26:17;;;;;;;0.00;0.00;;;;;;;;;;6201113;23;20017;-55
2022/05/28 14:28:43;;;;;;;0.00;0.00;;;;;;;;;;6206070;23;20017;-49
2022/05/28 14:31:11;;;;;;;0.00;0.00;;;;;;;;;;6199345;23;20088;-53
2022/05/28 14:33:38;;;;;;;0.00;0.00;;;;;;;;;;6198999;23;20043;-53
2022/05/28 14:36:08;;;;;;;0.00;0.00;;;;;;;;;;6200659;23;20511;-50
2022/05/28 14:38:33;;;;;;;0.00;0.00;;;;;;;;;;6205522;23;20016;-51
2022/05/28 14:41:00;;;;;;;0.00;0.00;;;;;;;;;;6204615;23;20028;-47
2022/05/28 14:43:27;;;;;;;0.00;0.00;;;;;;;;;;6205222;23;20012;-51
2022/05/28 14:46:21;;;;;;;0.00;0.00;;;;;;;;;;6202329;23;20481;-52
2022/05/28 14:48:46;;;;;;;0.00;0.00;;;;;;;;;;6145921;23;20365;-53
2022/05/28 14:51:11;;;;;;;0.00;0.00;;;;;;;;;;6205671;23;20008;-51
2022/05/28 14:53:39;;;;;;;0.00;0.00;;;;;;;;;;6204626;23;20028;-50
2022/05/28 14:56:12;;;;;;;0.00;0.00;;;;;;;;;;6203791;23;20024;-51
2022/05/28 14:58:42;;;;;;;0.00;0.00;;;;;;;;;;6203350;23;20047;-51
2022/05/28 15:01:08;;;;;;;0.00;0.00;;;;;;;;;;6204126;23;20029;-50
2022/05/28 15:03:34;;;;;;;0.00;0.00;;;;;;;;;;6202839;23;20023;-52
2022/05/28 15:06:08;;;;;;;0.00;0.00;;;;;;;;;;6203128;23;20020;-54
2022/05/28 15:08:34;;;;;;;0.00;0.00;;;;;;;;;;6200526;23;20299;-51
2022/05/28 15:11:00;;;;;;;0.00;0.00;;;;;;;;;;6204731;23;20312;-51
2022/05/28 15:13:27;;;;;;;0.00;0.00;;;;;;;;;;6197730;23;20016;-51
2022/05/28 15:15:54;;;;;;;0.00;0.00;;;;;;;;;;6202650;23;20016;-50
2022/05/28 15:18:19;;;;;;;0.00;0.00;;;;;;;;;;6203975;23;20005;-52
2022/05/28 15:20:45;;;;;;;0.00;0.00;;;;;;;;;;6201704;23;20104;-51
2022/05/28 15:23:10;;;;;;;0.00;0.00;;;;;;;;;;6204198;23;20020;-51
2022/05/28 15:25:36;;;;;;;0.00;0.00;;;;;;;;;;6200214;23;20225;-52
2022/05/28 15:28:01;;;;;;;0.00;0.00;;;;;;;;;;6200888;23;20031;-50
2022/05/28 15:30:27;;;;;;;0.00;0.00;;;;;;;;;;6200702;23;20021;-52
2022/05/28 15:32:53;;;;;;;0.00;0.00;;;;;;;;;;6200431;23;20012;-51
2022/05/28 15:37:51;;;;;;;0.00;0.00;;;;;;;;;;6201892;23;20020;-54
2022/05/28 15:38:07;;;;;;;0.00;0.00;;;;;;;;;;6203129;23;20008;-53
2022/05/28 15:40:33;;;;;;;0.00;0.00;;;;;;;;;;6197967;23;20025;-55
2022/05/28 15:42:58;;;;;;;0.00;0.00;;;;;;;;;;6201224;23;20072;-55
2022/05/28 15:45:27;;;;;;;0.00;0.00;;;;;;;;;;6202821;23;20299;-52
2022/05/28 15:47:54;;;;;;;0.00;0.00;;;;;;;;;;6203021;23;20016;-54
2022/05/28 15:50:19;;;;;;;0.00;0.00;;;;;;;;;;6189460;23;20016;-49
2022/05/28 15:52:46;;;;;;;0.00;0.00;;;;;;;;;;6204959;23;20016;-54
2022/05/28 15:55:12;;;;;;;0.00;0.00;;;;;;;;;;6204066;23;20023;-53